Time;durP1;ratioP1;P1;durP2;ratioP2;P2;SDS_P1;SDS_P2;PMS_P1;PMS_P2;Temp;Humidity;BMP_temperature;BMP_pressure;BME280_temperature;BME280_humidity;BME280_pressure;Samples;Min_cycle;Max_cycle;Signal;HPM_P1;HPM_P2
2022/08/15 00:02:22;;;;;;;8.57;4.43;;;22.60;83.90;;;;;;4844943;29;20045;-87
2022/08/15 00:05:12;;;;;;;8.55;5.03;;;22.60;83.90;;;;;;4843974;29;20467;-87
2022/08/15 00:07:42;;;;;;;;;;;22.60;83.00;;;;;;4855984;29;20057;-86
2022/08/15 00:10:18;;;;;;;8.10;5.00;;;22.50;83.10;;;;;;4856746;29;19929;-87
2022/08/15 00:13:14;;;;;;;8.32;4.75;;;22.50;83.40;;;;;;4857236;29;20828;-86
2022/08/15 00:15:46;;;;;;;10.07;4.68;;;22.50;83.70;;;;;;4843973;29;20136;-87
2022/08/15 00:18:15;;;;;;;9.18;4.90;;;22.40;84.50;;;;;;4860440;29;20110;-87
2022/08/15 00:20:47;;;;;;;8.40;4.95;;;22.40;84.70;;;;;;4856026;29;20054;-87
2022/08/15 00:23:22;;;;;;;8.10;4.95;;;22.40;84.10;;;;;;4852225;29;20066;-87
2022/08/15 00:25:57;;;;;;;7.70;4.85;;;22.40;84.10;;;;;;4844772;29;20061;-87
2022/08/15 00:28:45;;;;;;;9.27;4.95;;;22.40;84.20;;;;;;4857104;29;20046;-87
2022/08/15 00:31:23;;;;;;;8.43;5.13;;;22.30;84.40;;;;;;4850440;29;20078;-87
2022/08/15 00:34:07;;;;;;;8.80;4.88;;;22.30;84.50;;;;;;4840244;29;20053;-87
2022/08/15 00:36:54;;;;;;;8.95;5.22;;;22.30;84.60;;;;;;4840202;29;20195;-87
2022/08/15 00:39:24;;;;;;;9.82;4.85;;;22.30;85.40;;;;;;4833203;29;20509;-87
2022/08/15 00:42:01;;;;;;;8.85;4.97;;;22.20;85.70;;;;;;4837663;29;20737;-85
2022/08/15 00:44:40;;;;;;;9.47;4.80;;;22.20;85.40;;;;;;4851433;29;20423;-87
2022/08/15 00:47:29;;;;;;;8.23;5.43;;;22.20;85.80;;;;;;4857185;29;20044;-86
2022/08/15 00:50:11;;;;;;;10.32;4.50;;;22.20;86.20;;;;;;4857563;29;20077;-87
2022/08/15 00:53:01;;;;;;;9.45;5.28;;;22.20;86.20;;;;;;4845491;29;20041;-87
2022/08/15 00:55:30;;;;;;;10.68;5.50;;;22.10;86.60;;;;;;4856873;29;20174;-87
2022/08/15 00:58:01;;;;;;;9.77;5.43;;;22.20;87.10;;;;;;4859026;29;20046;-87
2022/08/15 01:00:36;;;;;;;9.05;5.20;;;22.10;86.10;;;;;;4839867;29;20054;-88
2022/08/15 01:03:18;;;;;;;8.73;5.13;;;22.00;86.80;;;;;;4845068;29;20049;-88
2022/08/15 01:05:48;;;;;;;8.48;4.90;;;22.10;86.90;;;;;;4859830;29;20053;-88
2022/08/15 01:08:21;;;;;;;8.82;4.78;;;22.00;86.90;;;;;;4843479;29;20199;-87
2022/08/15 01:11:26;;;;;;;10.07;4.95;;;22.00;86.50;;;;;;4857522;29;20080;-87
2022/08/15 01:14:01;;;;;;;7.97;5.25;;;22.00;86.90;;;;;;4855172;29;20050;-88
2022/08/15 01:16:50;;;;;;;9.30;5.40;;;22.00;86.70;;;;;;4845699;29;20478;-88
2022/08/15 01:19:40;;;;;;;10.20;5.05;;;22.00;86.90;;;;;;4843476;29;20510;-88
2022/08/15 01:22:08;;;;;;;9.48;5.57;;;22.00;86.60;;;;;;4843842;29;20077;-88
2022/08/15 01:24:52;;;;;;;8.00;5.10;;;22.00;86.90;;;;;;4856581;29;20106;-88
2022/08/15 01:28:18;;;;;;;11.75;4.57;;;21.90;86.60;;;;;;4858606;29;20060;-88
2022/08/15 01:31:01;;;;;;;9.82;5.38;;;21.90;86.80;;;;;;4858095;29;20049;-88
2022/08/15 01:33:41;;;;;;;10.43;5.28;;;21.80;87.20;;;;;;4876265;29;20401;-88
2022/08/15 01:36:10;;;;;;;10.57;4.93;;;21.80;87.70;;;;;;4858850;29;20180;-88
2022/08/15 01:39:14;;;;;;;11.00;5.10;;;21.80;87.40;;;;;;4854805;29;20051;-88
2022/08/15 01:41:44;;;;;;;7.55;4.65;;;21.80;87.60;;;;;;4865242;29;20041;-88
2022/08/15 01:44:50;;;;;;;9.10;5.45;;;21.80;87.70;;;;;;4871123;29;20046;-88
2022/08/15 01:47:47;;;;;;;8.20;4.95;;;21.80;87.90;;;;;;4874151;29;20044;-88
2022/08/15 01:50:24;;;;;;;9.48;5.47;;;21.70;88.30;;;;;;4865279;29;20578;-87
2022/08/15 01:53:04;;;;;;;9.88;4.88;;;21.70;88.40;;;;;;4866704;29;20041;-88
2022/08/15 01:55:57;;;;;;;8.27;5.03;;;21.70;88.30;;;;;;4864809;29;20052;-87
2022/08/15 01:58:28;;;;;;;9.15;5.40;;;21.60;88.60;;;;;;4862905;29;20055;-87
2022/08/15 02:01:02;;;;;;;10.93;5.32;;;21.60;88.80;;;;;;4884773;29;20048;-88
2022/08/15 02:03:35;;;;;;;9.45;5.15;;;21.60;89.00;;;;;;4860665;29;20056;-88
2022/08/15 02:06:28;;;;;;;8.48;5.35;;;21.60;89.20;;;;;;4848532;29;20392;-88
2022/08/15 02:09:13;;;;;;;10.13;5.60;;;21.60;89.60;;;;;;4870923;29;20065;-88
2022/08/15 02:11:49;;;;;;;11.50;5.05;;;21.50;89.70;;;;;;4868088;29;20100;-89
2022/08/15 02:14:33;;;;;;;11.13;5.53;;;21.50;90.00;;;;;;4863126;29;20476;-88
2022/08/15 02:17:12;;;;;;;11.00;5.70;;;21.50;89.80;;;;;;4872106;29;20053;-89
2022/08/15 02:19:42;;;;;;;10.93;6.28;;;21.40;89.90;;;;;;4847833;29;20503;-89
2022/08/15 02:22:21;;;;;;;9.30;5.80;;;21.30;90.20;;;;;;4854519;29;20046;-88
2022/08/15 02:24:51;;;;;;;9.90;5.70;;;21.40;90.10;;;;;;4863563;29;20059;-89
2022/08/15 02:27:20;;;;;;;7.97;5.15;;;21.30;90.00;;;;;;4865536;29;20562;-88
2022/08/15 02:29:49;;;;;;;15.65;6.40;;;21.30;90.00;;;;;;4863818;29;20097;-89
2022/08/15 02:32:21;;;;;;;9.52;5.75;;;21.10;90.10;;;;;;4848599;29;20477;-88
2022/08/15 02:34:57;;;;;;;9.85;5.22;;;21.10;90.30;;;;;;4848591;29;20451;-88
2022/08/15 02:37:25;;;;;;;9.38;5.65;;;21.20;90.30;;;;;;4862556;29;20048;-88
2022/08/15 02:39:54;;;;;;;11.00;5.60;;;21.20;90.40;;;;;;4875253;29;20045;-88
2022/08/15 02:42:44;;;;;;;10.68;5.32;;;21.20;90.40;;;;;;4861650;29;20043;-88
2022/08/15 02:45:15;;;;;;;14.48;5.75;;;21.20;90.60;;;;;;4859575;29;20111;-87
2022/08/15 02:47:45;;;;;;;14.88;5.55;;;21.10;90.40;;;;;;4861548;29;20037;-88
2022/08/15 02:50:15;;;;;;;10.60;5.85;;;21.10;90.50;;;;;;4860857;29;20057;-88
2022/08/15 02:52:49;;;;;;;11.05;5.68;;;21.10;90.50;;;;;;4848587;29;20041;-88
2022/08/15 02:55:21;;;;;;;10.23;6.28;;;21.10;90.80;;;;;;4877625;29;20049;-87
2022/08/15 02:57:52;;;;;;;11.48;5.75;;;21.10;90.90;;;;;;4864315;29;20514;-88
2022/08/15 03:00:27;;;;;;;11.38;5.60;;;21.10;90.90;;;;;;4864044;29;20085;-88
2022/08/15 03:03:08;;;;;;;9.52;4.75;;;21.00;91.00;;;;;;4860587;29;20045;-88
2022/08/15 03:05:48;;;;;;;12.13;5.28;;;21.10;91.00;;;;;;4864687;29;20052;-88
2022/08/15 03:08:23;;;;;;;10.95;5.63;;;21.00;90.90;;;;;;4862994;29;20045;-88
2022/08/15 03:10:53;;;;;;;10.68;5.70;;;21.00;91.00;;;;;;4860120;29;20053;-88
2022/08/15 03:13:25;;;;;;;11.88;5.30;;;21.00;91.20;;;;;;4861928;29;20045;-89
2022/08/15 03:16:09;;;;;;;;;;;21.00;91.20;;;;;;4850930;29;20508;-88
2022/08/15 03:18:42;;;;;;;10.77;5.13;;;21.00;91.20;;;;;;4850055;29;19945;-88
2022/08/15 03:21:20;;;;;;;9.07;5.82;;;21.00;91.60;;;;;;4862887;29;20056;-87
2022/08/15 03:23:49;;;;;;;14.90;6.15;;;21.00;91.90;;;;;;4862551;29;20072;-89
2022/08/15 03:26:24;;;;;;;14.30;6.35;;;20.90;91.80;;;;;;4868818;29;20052;-88
2022/08/15 03:29:16;;;;;;;11.85;5.35;;;20.90;91.70;;;;;;4861727;29;20048;-88
2022/08/15 03:31:49;;;;;;;12.15;6.22;;;20.90;91.90;;;;;;4861036;29;20057;-88
2022/08/15 03:34:22;;;;;;;11.17;5.93;;;20.90;92.00;;;;;;4843032;29;20049;-89
2022/08/15 03:36:55;;;;;;;13.93;6.40;;;20.90;91.80;;;;;;4859284;29;20052;-89
2022/08/15 03:39:24;;;;;;;11.15;6.00;;;20.90;92.00;;;;;;4863277;29;20928;-89
2022/08/15 03:41:53;;;;;;;11.68;6.35;;;20.90;92.30;;;;;;4845056;29;20056;-89
2022/08/15 03:44:24;;;;;;;14.38;6.00;;;20.80;92.40;;;;;;4865116;29;20056;-89
2022/08/15 03:46:58;;;;;;;11.73;6.10;;;20.80;92.30;;;;;;4843830;29;20355;-90
2022/08/15 03:49:30;;;;;;;12.55;6.07;;;20.80;92.50;;;;;;4861699;29;20052;-89
2022/08/15 03:52:19;;;;;;;10.18;5.65;;;20.80;92.70;;;;;;4817514;29;20050;-89
2022/08/15 03:55:06;;;;;;;13.75;5.88;;;20.70;92.60;;;;;;4820530;29;20055;-89
2022/08/15 03:57:45;;;;;;;7.82;5.32;;;20.80;92.60;;;;;;4819455;29;20158;-89
2022/08/15 04:00:44;;;;;;;11.77;5.75;;;20.80;92.50;;;;;;4804499;29;20051;-90
2022/08/15 04:03:24;;;;;;;12.63;5.55;;;20.80;92.90;;;;;;4819125;29;20543;-90
2022/08/15 04:06:00;;;;;;;9.55;5.38;;;20.80;92.90;;;;;;4799116;29;20369;-90
2022/08/15 04:08:34;;;;;;;11.15;5.78;;;20.80;92.70;;;;;;4820239;29;20042;-88
2022/08/15 04:11:31;;;;;;;16.80;6.35;;;20.80;92.90;;;;;;4855660;29;20052;-88
2022/08/15 04:14:06;;;;;;;9.18;5.78;;;20.80;93.30;;;;;;4875360;29;20056;-89
2022/08/15 04:16:59;;;;;;;9.70;5.45;;;20.80;93.20;;;;;;4860885;29;20759;-88
2022/08/15 04:19:42;;;;;;;12.75;6.78;;;20.80;93.00;;;;;;4860399;29;20757;-90
2022/08/15 04:22:31;;;;;;;11.25;6.28;;;20.80;92.90;;;;;;4855828;29;20057;-89
2022/08/15 04:25:25;;;;;;;15.07;5.88;;;20.90;92.80;;;;;;4861422;29;20037;-89
2022/08/15 04:28:06;;;;;;;13.93;7.38;;;20.90;92.80;;;;;;4843782;29;20050;-88
2022/08/15 04:30:53;;;;;;;12.18;5.90;;;20.90;92.90;;;;;;4861328;29;20093;-89
2022/08/15 04:33:22;;;;;;;13.32;6.75;;;20.90;93.20;;;;;;4862469;29;20049;-89
2022/08/15 04:36:15;;;;;;;12.13;6.53;;;20.90;93.50;;;;;;4854986;29;20475;-89
2022/08/15 04:38:50;;;;;;;15.30;6.15;;;21.00;93.80;;;;;;4836574;29;20113;-89
2022/08/15 04:41:19;;;;;;;13.45;6.10;;;21.00;94.00;;;;;;4855478;29;20041;-89
2022/08/15 04:44:08;;;;;;;17.77;7.18;;;21.00;93.90;;;;;;4848195;29;20056;-89
2022/08/15 04:46:51;;;;;;;11.98;5.88;;;21.10;93.80;;;;;;4861547;29;20131;-89
2022/08/15 04:49:19;;;;;;;14.35;6.60;;;21.10;93.70;;;;;;4847849;29;20109;-89
2022/08/15 04:51:50;;;;;;;12.85;6.28;;;21.10;94.00;;;;;;4860032;29;20045;-88
2022/08/15 04:54:20;;;;;;;11.15;6.35;;;21.10;94.10;;;;;;4860137;29;20077;-88
2022/08/15 04:57:03;;;;;;;14.18;6.65;;;21.10;94.30;;;;;;4863091;29;20042;-89
2022/08/15 04:59:31;;;;;;;13.70;6.72;;;21.20;94.40;;;;;;4861180;29;20105;-88
2022/08/15 05:02:12;;;;;;;14.07;6.47;;;21.20;94.60;;;;;;4853838;29;20044;-87
2022/08/15 05:05:02;;;;;;;15.30;6.88;;;21.30;94.70;;;;;;4861554;29;20526;-88
2022/08/15 05:07:32;;;;;;;12.00;6.45;;;21.30;94.30;;;;;;4860421;29;20045;-88
2022/08/15 05:10:04;;;;;;;16.05;7.28;;;21.40;94.50;;;;;;4854284;29;20053;-88
2022/08/15 05:12:41;;;;;;;12.82;6.57;;;21.40;94.60;;;;;;4858574;29;20132;-88
2022/08/15 05:15:11;;;;;;;11.30;6.20;;;21.40;95.00;;;;;;4862517;29;20041;-87
2022/08/15 05:17:41;;;;;;;11.95;6.78;;;21.50;94.50;;;;;;4860886;29;20569;-88
2022/08/15 05:20:27;;;;;;;12.45;6.50;;;21.60;94.40;;;;;;4849844;29;20041;-88
2022/08/15 05:23:13;;;;;;;11.43;6.30;;;21.60;93.50;;;;;;4843902;29;20101;-88
2022/08/15 05:25:56;;;;;;;12.63;6.05;;;21.60;92.80;;;;;;4857357;29;20060;-87
2022/08/15 05:28:25;;;;;;;13.10;5.95;;;21.70;92.50;;;;;;4877557;29;20060;-88
2022/08/15 05:31:05;;;;;;;12.73;6.40;;;21.90;92.20;;;;;;4856933;29;20053;-87
2022/08/15 05:33:47;;;;;;;15.50;6.28;;;22.00;91.90;;;;;;4861167;29;20131;-88
2022/08/15 05:36:25;;;;;;;14.55;6.60;;;22.10;91.50;;;;;;4854476;29;20132;-88
2022/08/15 05:39:05;;;;;;;14.53;7.47;;;22.30;91.30;;;;;;4861502;29;20053;-87
2022/08/15 05:41:52;;;;;;;12.45;6.55;;;22.40;90.50;;;;;;4857067;29;20105;-87
2022/08/15 05:44:32;;;;;;;14.27;6.75;;;22.40;90.60;;;;;;4850025;29;20498;-88
2022/08/15 05:47:33;;;;;;;14.90;7.38;;;22.50;90.00;;;;;;4860345;29;20145;-88
2022/08/15 05:50:22;;;;;;;13.25;6.45;;;22.70;89.50;;;;;;4858539;29;20045;-88
2022/08/15 05:53:20;;;;;;;12.45;6.45;;;22.90;88.20;;;;;;4852854;29;20406;-87
2022/08/15 05:56:14;;;;;;;10.63;6.25;;;23.00;86.40;;;;;;4858720;29;20046;-88
2022/08/15 05:58:57;;;;;;;10.82;5.88;;;23.20;85.70;;;;;;4865928;29;20080;-88
2022/08/15 06:01:50;;;;;;;10.65;5.70;;;23.40;85.00;;;;;;4868800;29;20063;-87
2022/08/15 06:04:47;;;;;;;9.75;4.93;;;23.60;84.20;;;;;;4860332;29;20056;-86
2022/08/15 06:07:17;;;;;;;10.23;4.93;;;23.80;83.30;;;;;;4859975;29;20044;-86
2022/08/15 06:09:54;;;;;;;9.68;5.50;;;24.00;81.40;;;;;;4861798;29;20041;-87
2022/08/15 06:12:36;;;;;;;8.27;5.00;;;24.20;81.40;;;;;;4856773;29;20049;-87
2022/08/15 06:15:20;;;;;;;9.98;5.40;;;24.30;79.70;;;;;;4857531;29;20057;-87
2022/08/15 06:18:00;;;;;;;8.65;5.45;;;24.50;79.80;;;;;;4868404;29;21503;-85
2022/08/15 06:20:39;;;;;;;9.00;4.50;;;24.70;80.60;;;;;;4854356;29;20049;-85
2022/08/15 06:23:35;;;;;;;9.88;5.05;;;24.90;80.00;;;;;;4873974;29;20052;-86
2022/08/15 06:26:38;;;;;;;9.15;4.88;;;25.10;79.40;;;;;;4864154;29;20061;-86
2022/08/15 06:29:30;;;;;;;9.68;4.75;;;25.30;80.10;;;;;;4873040;29;20519;-84
2022/08/15 06:32:11;;;;;;;10.65;5.93;;;25.40;78.00;;;;;;4873166;29;20053;-86
2022/08/15 06:34:57;;;;;;;10.10;5.72;;;25.50;77.40;;;;;;4869259;29;20140;-86
2022/08/15 06:37:31;;;;;;;9.07;5.53;;;25.40;77.90;;;;;;4861052;29;20057;-85
2022/08/15 06:40:33;;;;;;;9.70;5.78;;;25.30;79.30;;;;;;4867728;29;20054;-84
2022/08/15 06:43:02;;;;;;;12.80;5.78;;;25.20;78.40;;;;;;4836736;29;20145;-84
2022/08/15 06:45:54;;;;;;;12.10;5.68;;;25.30;79.30;;;;;;4855060;29;20045;-84
2022/08/15 06:48:28;;;;;;;9.93;5.55;;;25.60;78.60;;;;;;4859653;29;20077;-85
2022/08/15 06:51:15;;;;;;;10.25;5.22;;;25.90;77.30;;;;;;4845848;29;20045;-84
2022/08/15 06:53:50;;;;;;;8.32;5.22;;;26.00;76.60;;;;;;4845219;29;20049;-86
2022/08/15 06:56:28;;;;;;;10.30;5.25;;;26.10;76.00;;;;;;4843489;29;20125;-87
2022/08/15 06:58:58;;;;;;;11.48;5.47;;;26.20;76.70;;;;;;4851422;29;20133;-86
2022/08/15 07:01:48;;;;;;;12.23;5.70;;;26.40;75.90;;;;;;4858898;29;20091;-86
2022/08/15 07:05:05;;;;;;;10.60;5.95;;;26.30;74.10;;;;;;4855282;29;20524;-85
2022/08/15 07:07:42;;;;;;;9.52;5.60;;;26.30;75.20;;;;;;4854456;29;20136;-87
2022/08/15 07:10:40;;;;;;;9.38;5.80;;;26.50;74.70;;;;;;4860884;29;20053;-84
2022/08/15 07:13:24;;;;;;;10.60;4.93;;;26.70;74.00;;;;;;4858434;29;20063;-93
2022/08/15 07:16:02;;;;;;;11.23;5.70;;;26.70;73.90;;;;;;4857650;29;20057;-89
2022/08/15 07:18:39;;;;;;;10.77;5.93;;;26.80;72.60;;;;;;4857342;29;20046;-91
2022/08/15 07:21:22;;;;;;;9.98;4.97;;;26.90;73.40;;;;;;4842041;29;20049;-88
2022/08/15 07:24:11;;;;;;;9.70;5.40;;;27.20;72.90;;;;;;4856451;29;20077;-90
2022/08/15 07:27:04;;;;;;;9.90;5.32;;;27.30;71.90;;;;;;4854600;29;20042;-92
2022/08/15 07:29:37;;;;;;;9.40;5.43;;;27.30;71.00;;;;;;4849257;29;20418;-93
2022/08/15 07:32:20;;;;;;;10.05;5.25;;;27.40;70.90;;;;;;4858070;29;20050;-92
2022/08/15 07:35:05;;;;;;;9.85;4.82;;;27.50;70.70;;;;;;4855501;29;20050;-91
2022/08/15 07:37:48;;;;;;;8.63;4.50;;;27.40;70.40;;;;;;4868686;29;20054;-91
2022/08/15 07:40:28;;;;;;;11.27;4.85;;;27.40;71.40;;;;;;4841643;29;20045;-88
2022/08/15 07:43:25;;;;;;;12.20;5.03;;;27.70;71.40;;;;;;4837790;29;20041;-89
2022/08/15 07:46:34;;;;;;;9.00;4.97;;;28.00;69.80;;;;;;4858095;29;20129;-90
2022/08/15 07:49:20;;;;;;;9.57;4.90;;;28.00;69.60;;;;;;4855404;29;20041;-90
2022/08/15 07:52:14;;;;;;;8.57;5.40;;;27.60;70.00;;;;;;4840717;29;20061;-89
2022/08/15 07:55:20;;;;;;;11.55;5.30;;;27.40;70.30;;;;;;4866907;29;20058;-90
2022/08/15 07:58:18;;;;;;;9.63;4.15;;;27.60;71.00;;;;;;4841841;29;20120;-91
2022/08/15 08:01:23;;;;;;;9.27;4.72;;;27.60;69.90;;;;;;4849339;29;20050;-92
2022/08/15 08:04:01;;;;;;;8.80;4.68;;;27.60;68.50;;;;;;4852772;29;20114;-91
2022/08/15 08:06:58;;;;;;;7.80;4.60;;;27.70;69.20;;;;;;4858232;29;20053;-87
2022/08/15 08:10:02;;;;;;;11.70;5.13;;;27.60;70.00;;;;;;4827747;29;20053;-89
2022/08/15 08:12:58;;;;;;;8.93;4.43;;;27.60;70.40;;;;;;4860358;29;20049;-90
2022/08/15 08:15:44;;;;;;;9.48;5.03;;;28.10;69.50;;;;;;4840414;29;20049;-93
2022/08/15 08:18:37;;;;;;;10.50;5.00;;;28.70;68.90;;;;;;4865934;29;20061;-90
2022/08/15 08:21:56;;;;;;;12.43;4.78;;;28.70;66.00;;;;;;4856831;29;20050;-92
2022/08/15 08:24:25;;;;;;;10.07;5.00;;;28.90;66.70;;;;;;4859453;29;20061;-94
2022/08/15 08:26:59;;;;;;;8.02;4.43;;;29.30;66.30;;;;;;4853941;29;20430;-90
2022/08/15 08:29:45;;;;;;;9.95;4.80;;;29.40;65.40;;;;;;4858005;29;20045;-90
2022/08/15 08:32:39;;;;;;;11.35;4.80;;;29.50;64.00;;;;;;4866606;29;20062;-92
2022/08/15 08:35:30;;;;;;;10.65;4.82;;;29.00;64.60;;;;;;4852948;29;20130;-92
2022/08/15 08:38:23;;;;;;;8.00;5.07;;;28.70;64.70;;;;;;4855726;29;20060;-89
2022/08/15 08:41:33;;;;;;;11.25;5.07;;;28.80;65.10;;;;;;4856629;29;20045;-90
2022/08/15 08:44:24;;;;;;;10.07;5.07;;;29.00;64.80;;;;;;4859094;29;20570;-91
2022/08/15 08:47:18;;;;;;;7.82;5.00;;;29.30;64.50;;;;;;4842161;29;20113;-88
2022/08/15 08:49:48;;;;;;;9.52;4.75;;;29.50;63.90;;;;;;4850759;29;20038;-92
2022/08/15 08:52:58;;;;;;;6.55;4.10;;;29.70;63.20;;;;;;4860413;29;20818;-89
2022/08/15 08:55:30;;;;;;;8.63;5.10;;;29.80;62.60;;;;;;4854394;29;20049;-91
2022/08/15 08:58:20;;;;;;;8.27;3.95;;;29.90;63.50;;;;;;4858965;29;20057;-91
2022/08/15 09:01:12;;;;;;;8.98;4.07;;;29.90;61.20;;;;;;4855484;29;20109;-95
2022/08/15 09:03:58;;;;;;;9.30;4.25;;;29.90;61.00;;;;;;4845143;29;20056;-90
2022/08/15 09:06:31;;;;;;;6.47;3.72;;;29.90;60.40;;;;;;4852366;29;20145;-93
2022/08/15 09:09:26;;;;;;;6.47;3.83;;;29.90;60.70;;;;;;4855777;29;20049;-91
2022/08/15 09:12:02;;;;;;;8.57;4.22;;;30.00;59.40;;;;;;4841258;29;20069;-93
2022/08/15 09:14:37;;;;;;;5.95;3.00;;;30.00;59.00;;;;;;4855733;29;20130;-90
2022/08/15 09:17:26;;;;;;;6.43;3.53;;;30.10;59.00;;;;;;4844882;29;20054;-91
2022/08/15 09:20:13;;;;;;;5.35;3.53;;;30.10;57.80;;;;;;4856794;29;20085;-90
2022/08/15 09:22:47;;;;;;;5.85;3.67;;;30.10;58.50;;;;;;4874100;29;20091;-90
2022/08/15 09:25:21;;;;;;;6.13;3.30;;;30.00;58.50;;;;;;4856966;29;20096;-91
2022/08/15 09:28:04;;;;;;;5.55;4.10;;;29.90;59.00;;;;;;4863369;29;20064;-91
2022/08/15 09:30:54;;;;;;;4.95;3.45;;;29.80;58.90;;;;;;4852927;29;20049;-90
2022/08/15 09:33:32;;;;;;;;;;;29.90;58.10;;;;;;4860923;29;20073;-91
2022/08/15 09:36:12;;;;;;;5.80;3.70;;;29.90;59.40;;;;;;4861821;29;20394;-89
2022/08/15 09:39:02;;;;;;;10.82;3.95;;;29.70;58.50;;;;;;4861774;29;20053;-93
2022/08/15 09:41:55;;;;;;;5.15;3.55;;;29.60;57.80;;;;;;4861759;29;20072;-93
2022/08/15 09:45:02;;;;;;;8.63;3.80;;;29.80;58.60;;;;;;4861062;29;20072;-92
2022/08/15 09:48:04;;;;;;;5.15;3.70;;;30.00;57.20;;;;;;4855459;29;20060;-93
2022/08/15 09:50:58;;;;;;;6.60;3.88;;;29.90;57.40;;;;;;4840899;29;20056;-90
2022/08/15 09:53:43;;;;;;;5.10;3.08;;;29.60;57.90;;;;;;4871341;29;20044;-91
2022/08/15 09:56:33;;;;;;;6.95;3.97;;;29.80;57.30;;;;;;4868093;29;20060;-93
2022/08/15 09:59:23;;;;;;;6.82;3.65;;;30.00;57.80;;;;;;4863187;29;20060;-90
2022/08/15 10:01:58;;;;;;;8.13;3.90;;;30.10;56.90;;;;;;4857898;29;20494;-90
2022/08/15 10:04:49;;;;;;;6.13;3.85;;;30.10;57.10;;;;;;4862236;29;20057;-93
2022/08/15 10:07:32;;;;;;;6.65;3.70;;;30.10;57.30;;;;;;4823763;29;20409;-94
2022/08/15 10:09:59;;;;;;;4.97;3.60;;;29.70;56.20;;;;;;4856984;29;20049;-94
2022/08/15 10:12:31;;;;;;;6.93;4.10;;;29.40;55.90;;;;;;4860482;29;20053;-93
2022/08/15 10:15:04;;;;;;;6.65;3.58;;;29.40;56.70;;;;;;4847975;29;20068;-90
2022/08/15 10:17:34;;;;;;;6.30;3.72;;;29.60;57.40;;;;;;4857942;29;20041;-90
2022/08/15 10:20:17;;;;;;;6.15;3.80;;;29.80;57.50;;;;;;4857539;29;20068;-94
2022/08/15 10:23:00;;;;;;;5.25;3.45;;;29.90;56.80;;;;;;4868847;29;20057;-90
2022/08/15 10:25:35;;;;;;;7.28;3.58;;;30.10;57.10;;;;;;4873296;29;20114;-88
2022/08/15 10:28:20;;;;;;;6.85;3.55;;;30.20;56.80;;;;;;4856525;29;20071;-91
2022/08/15 10:31:05;;;;;;;5.32;3.53;;;30.40;55.80;;;;;;4855556;29;20057;-91
2022/08/15 10:33:33;;;;;;;9.30;3.47;;;30.30;55.90;;;;;;4857765;29;20088;-87
2022/08/15 10:36:18;;;;;;;7.43;3.40;;;30.40;56.60;;;;;;4877791;29;20049;-90
2022/08/15 10:39:26;;;;;;;6.60;3.25;;;30.30;56.30;;;;;;4865457;29;20095;-90
2022/08/15 10:42:27;;;;;;;7.28;3.30;;;30.00;55.90;;;;;;4861199;29;20109;-88
2022/08/15 10:45:14;;;;;;;4.32;3.45;;;29.80;56.40;;;;;;4855988;29;20049;-90
2022/08/15 10:48:10;;;;;;;8.45;3.97;;;29.60;55.60;;;;;;4874957;29;20092;-90
2022/08/15 10:50:51;;;;;;;5.85;3.50;;;29.70;56.70;;;;;;4872717;29;20041;-90
2022/08/15 10:54:04;;;;;;;6.20;3.83;;;29.90;54.00;;;;;;4861879;29;20049;-94
2022/08/15 10:56:33;;;;;;;4.63;3.13;;;30.20;55.60;;;;;;4865539;29;20085;-89
2022/08/15 10:59:33;;;;;;;4.75;3.47;;;30.20;55.00;;;;;;4870874;29;20676;-89
2022/08/15 11:02:18;;;;;;;7.07;3.72;;;30.20;55.80;;;;;;4875414;29;20132;-88
2022/08/15 11:05:12;;;;;;;6.03;3.58;;;30.20;55.70;;;;;;4861305;29;20041;-90
2022/08/15 11:07:54;;;;;;;4.13;3.10;;;30.50;54.70;;;;;;4860225;29;20057;-89
2022/08/15 11:10:32;;;;;;;6.68;3.63;;;30.50;55.00;;;;;;4860663;29;20061;-90
2022/08/15 11:13:14;;;;;;;10.13;3.40;;;30.60;54.90;;;;;;4862813;29;20101;-87
2022/08/15 11:15:58;;;;;;;5.25;3.65;;;30.80;53.50;;;;;;4868834;29;20068;-86
2022/08/15 11:18:52;;;;;;;4.32;2.95;;;31.00;52.80;;;;;;4870829;29;20041;-93
2022/08/15 11:21:42;;;;;;;4.13;3.20;;;30.90;54.00;;;;;;4857383;29;20080;-92
2022/08/15 11:24:11;;;;;;;7.05;3.10;;;30.80;54.40;;;;;;4878306;29;20913;-87
2022/08/15 11:26:42;;;;;;;4.72;3.30;;;30.80;52.90;;;;;;4872977;29;20050;-92
2022/08/15 11:29:24;;;;;;;5.10;2.95;;;30.90;52.20;;;;;;4863310;29;20085;-87
2022/08/15 11:31:56;;;;;;;6.68;3.50;;;31.00;52.30;;;;;;4878544;29;20056;-93
2022/08/15 11:34:44;;;;;;;4.10;3.00;;;31.10;52.50;;;;;;4863593;29;20130;-87
2022/08/15 11:37:55;;;;;;;3.53;2.92;;;31.10;51.50;;;;;;4866630;29;20081;-92
2022/08/15 11:40:26;;;;;;;5.70;3.45;;;31.10;51.10;;;;;;4787672;29;20154;-88
2022/08/15 11:42:58;;;;;;;3.53;3.03;;;31.10;51.40;;;;;;4797718;29;20513;-90
2022/08/15 11:45:42;;;;;;;4.03;2.33;;;31.10;50.40;;;;;;4827353;29;20045;-90
2022/08/15 11:48:36;;;;;;;7.55;3.13;;;31.10;49.10;;;;;;4861126;29;20144;-91
2022/08/15 11:51:07;;;;;;;5.45;3.00;;;31.10;49.80;;;;;;4851671;29;20042;-88
2022/08/15 11:54:04;;;;;;;7.47;3.15;;;31.10;50.90;;;;;;4865453;29;20087;-88
2022/08/15 11:56:56;;;;;;;4.53;2.90;;;31.00;50.00;;;;;;4839499;29;20156;-95
2022/08/15 11:59:32;;;;;;;3.97;2.85;;;30.90;50.00;;;;;;4853597;29;20053;-87
2022/08/15 12:02:09;;;;;;;4.47;3.05;;;30.90;51.00;;;;;;4846837;29;20049;-91
2022/08/15 12:05:07;;;;;;;4.13;3.05;;;31.00;51.30;;;;;;4863703;29;20041;-88
2022/08/15 12:07:59;;;;;;;5.78;3.40;;;31.20;50.90;;;;;;4862790;29;20093;-89
2022/08/15 12:10:40;;;;;;;4.88;3.20;;;31.10;50.90;;;;;;4861099;29;20065;-91
2022/08/15 12:13:28;;;;;;;;;;;31.30;51.00;;;;;;4855600;29;20064;-93
2022/08/15 12:16:02;;;;;;;5.07;3.00;;;31.30;50.40;;;;;;4871132;29;19927;-90
2022/08/15 12:18:50;;;;;;;5.13;3.80;;;31.30;50.10;;;;;;4862446;29;20271;-87
2022/08/15 12:21:23;;;;;;;4.50;3.00;;;31.30;51.30;;;;;;4861940;29;20052;-89
2022/08/15 12:23:58;;;;;;;6.75;3.45;;;31.30;51.50;;;;;;4855731;29;20593;-88
2022/08/15 12:26:29;;;;;;;6.35;3.30;;;31.40;51.00;;;;;;4863230;29;20104;-88
2022/08/15 12:29:15;;;;;;;5.03;3.30;;;31.40;50.50;;;;;;4861571;29;20132;-89
2022/08/15 12:31:47;;;;;;;3.92;2.85;;;31.40;50.60;;;;;;4861485;29;20053;-88
2022/08/15 12:34:25;;;;;;;3.55;2.67;;;31.60;51.50;;;;;;4862181;29;20494;-88
2022/08/15 12:37:00;;;;;;;6.15;2.83;;;31.60;50.60;;;;;;4857513;29;20044;-90
2022/08/15 12:39:49;;;;;;;5.63;3.55;;;31.60;51.20;;;;;;4863323;29;20044;-87
2022/08/15 12:42:22;;;;;;;6.60;3.10;;;31.80;51.30;;;;;;4846041;29;20048;-90
2022/08/15 12:45:18;;;;;;;3.75;2.90;;;31.80;51.10;;;;;;4863689;29;20855;-88
2022/08/15 12:47:46;;;;;;;6.63;2.80;;;31.40;50.80;;;;;;4871479;29;20080;-89
2022/08/15 12:50:34;;;;;;;5.68;3.75;;;31.10;50.90;;;;;;4870181;29;20052;-88
2022/08/15 12:53:05;;;;;;;5.57;2.97;;;31.10;50.60;;;;;;4858087;29;20064;-89
2022/08/15 12:55:42;;;;;;;3.90;2.80;;;31.20;51.60;;;;;;4859406;29;20084;-88
2022/08/15 12:58:14;;;;;;;4.22;3.03;;;31.10;50.50;;;;;;4860534;29;20041;-87
2022/08/15 13:00:46;;;;;;;8.68;3.33;;;30.80;51.00;;;;;;4860684;29;20061;-88
2022/08/15 13:03:33;;;;;;;4.88;3.17;;;30.70;51.90;;;;;;4858972;29;20156;-88
2022/08/15 13:06:45;;;;;;;6.65;2.95;;;30.50;51.40;;;;;;4863730;29;20052;-88
2022/08/15 13:09:27;;;;;;;5.70;2.60;;;30.30;51.50;;;;;;4869275;29;20056;-88
2022/08/15 13:11:58;;;;;;;6.18;2.75;;;30.30;51.90;;;;;;4857993;29;20050;-88
2022/08/15 13:14:25;;;;;;;5.38;2.80;;;30.40;51.50;;;;;;4861767;29;20045;-88
2022/08/15 13:16:54;;;;;;;3.65;2.42;;;30.60;52.10;;;;;;4859550;29;20156;-88
2022/08/15 13:25:20;;;;;;;4.20;2.85;;;31.00;49.70;;;;;;4872461;29;20053;-88
2022/08/15 13:27:49;;;;;;;4.90;2.35;;;31.30;49.70;;;;;;4863872;29;20044;-92
2022/08/15 13:30:19;;;;;;;6.45;3.05;;;31.30;49.60;;;;;;4857446;29;20079;-89
2022/08/15 13:32:47;;;;;;;6.50;2.80;;;30.90;49.70;;;;;;4840856;29;20057;-95
2022/08/15 13:35:20;;;;;;;5.55;2.47;;;30.70;50.20;;;;;;4853194;29;20055;-87
2022/08/15 13:37:47;;;;;;;3.70;2.47;;;30.80;50.30;;;;;;4838815;29;20074;-86
2022/08/15 13:40:28;;;;;;;3.08;2.25;;;31.00;50.00;;;;;;4856813;29;20056;-89
2022/08/15 13:43:01;;;;;;;3.70;2.45;;;31.20;49.30;;;;;;4856667;29;20685;-89
2022/08/15 13:45:42;;;;;;;4.65;2.38;;;31.20;48.10;;;;;;4857827;29;20054;-88
2022/08/15 13:48:35;;;;;;;2.42;2.03;;;31.30;49.20;;;;;;4839000;29;20062;-89
2022/08/15 13:51:25;;;;;;;6.15;2.92;;;31.30;48.40;;;;;;4869891;29;20050;-85
2022/08/15 13:54:13;;;;;;;4.90;2.20;;;31.40;49.50;;;;;;4842926;29;20049;-94
2022/08/15 13:57:00;;;;;;;5.10;2.13;;;31.50;48.00;;;;;;4857833;29;20300;-92
2022/08/15 13:59:30;;;;;;;7.18;2.10;;;31.60;47.60;;;;;;4859783;29;20060;-89
2022/08/15 14:02:00;;;;;;;3.33;2.00;;;31.60;47.30;;;;;;4859023;29;20045;-91
2022/08/15 14:04:47;;;;;;;2.78;2.08;;;31.60;48.20;;;;;;4854545;29;20094;-92
2022/08/15 14:07:29;;;;;;;5.32;1.95;;;31.60;47.60;;;;;;4856388;29;20085;-88